sensor_id;sensor_type;location;lat;lon;timestamp;temperature;humidity
26164;DHT22;13914;48.178;11.716;2022-12-05T00:01:34;2.60;99.90
26164;DHT22;13914;48.178;11.716;2022-12-05T00:04:09;2.60;99.90
26164;DHT22;13914;48.178;11.716;2022-12-05T00:06:38;2.60;99.90
26164;DHT22;13914;48.178;11.716;2022-12-05T00:09:05;2.60;99.90
26164;DHT22;13914;48.178;11.716;2022-12-05T00:11:32;2.70;99.90
26164;DHT22;13914;48.178;11.716;2022-12-05T00:14:00;2.60;99.90
26164;DHT22;13914;48.178;11.716;2022-12-05T00:16:27;2.60;99.90
26164;DHT22;13914;48.178;11.716;2022-12-05T00:18:53;2.60;99.90
26164;DHT22;13914;48.178;11.716;2022-12-05T00:21:20;2.60;99.90
26164;DHT22;13914;48.178;11.716;2022-12-05T00:23:50;2.60;99.90
26164;DHT22;13914;48.178;11.716;2022-12-05T00:26:16;2.60;99.90
26164;DHT22;13914;48.178;11.716;2022-12-05T00:28:42;2.60;99.90
26164;DHT22;13914;48.178;11.716;2022-12-05T00:31:09;2.60;99.90
26164;DHT22;13914;48.178;11.716;2022-12-05T00:33:37;2.60;99.90
26164;DHT22;13914;48.178;11.716;2022-12-05T00:36:22;2.60;99.90
26164;DHT22;13914;48.178;11.716;2022-12-05T00:38:49;2.60;99.90
26164;DHT22;13914;48.178;11.716;2022-12-05T00:41:16;2.60;99.90
26164;DHT22;13914;48.178;11.716;2022-12-05T00:43:44;2.60;99.90
26164;DHT22;13914;48.178;11.716;2022-12-05T00:46:10;2.60;99.90
26164;DHT22;13914;48.178;11.716;2022-12-05T00:48:37;2.60;99.90
26164;DHT22;13914;48.178;11.716;2022-12-05T00:51:04;2.60;99.90
26164;DHT22;13914;48.178;11.716;2022-12-05T00:53:32;2.60;99.90
26164;DHT22;13914;48.178;11.716;2022-12-05T00:56:05;2.60;99.90
26164;DHT22;13914;48.178;11.716;2022-12-05T00:58:32;2.50;99.90
26164;DHT22;13914;48.178;11.716;2022-12-05T01:01:08;2.60;99.90
26164;DHT22;13914;48.178;11.716;2022-12-05T01:03:34;2.60;99.90
26164;DHT22;13914;48.178;11.716;2022-12-05T01:06:00;2.60;99.90
26164;DHT22;13914;48.178;11.716;2022-12-05T01:08:26;2.50;99.90
26164;DHT22;13914;48.178;11.716;2022-12-05T01:10:53;2.50;99.90
26164;DHT22;13914;48.178;11.716;2022-12-05T01:13:19;2.50;99.90
26164;DHT22;13914;48.178;11.716;2022-12-05T01:15:45;2.50;99.90
26164;DHT22;13914;48.178;11.716;2022-12-05T01:18:11;2.50;99.90
26164;DHT22;13914;48.178;11.716;2022-12-05T01:20:40;2.50;99.90
26164;DHT22;13914;48.178;11.716;2022-12-05T01:23:06;2.50;99.90
26164;DHT22;13914;48.178;11.716;2022-12-05T01:25:32;2.50;99.90
26164;DHT22;13914;48.178;11.716;2022-12-05T01:27:58;2.50;99.90
26164;DHT22;13914;48.178;11.716;2022-12-05T01:30:24;2.50;99.90
26164;DHT22;13914;48.178;11.716;2022-12-05T01:32:49;2.50;99.90
26164;DHT22;13914;48.178;11.716;2022-12-05T01:35:15;2.50;99.90
26164;DHT22;13914;48.178;11.716;2022-12-05T01:37:41;2.50;99.90
26164;DHT22;13914;48.178;11.716;2022-12-05T01:40:06;2.50;99.90
26164;DHT22;13914;48.178;11.716;2022-12-05T01:42:32;2.50;99.90
26164;DHT22;13914;48.178;11.716;2022-12-05T01:45:12;2.40;99.90
26164;DHT22;13914;48.178;11.716;2022-12-05T01:47:40;2.50;99.90
26164;DHT22;13914;48.178;11.716;2022-12-05T01:50:06;2.50;99.90
26164;DHT22;13914;48.178;11.716;2022-12-05T01:52:32;2.50;99.90
26164;DHT22;13914;48.178;11.716;2022-12-05T01:55:01;2.50;99.90
26164;DHT22;13914;48.178;11.716;2022-12-05T01:57:30;2.50;99.90
26164;DHT22;13914;48.178;11.716;2022-12-05T01:59:57;2.50;99.90
26164;DHT22;13914;48.178;11.716;2022-12-05T02:02:25;2.50;99.90
26164;DHT22;13914;48.178;11.716;2022-12-05T02:05:11;2.50;99.90
26164;DHT22;13914;48.178;11.716;2022-12-05T02:07:40;2.40;99.90
26164;DHT22;13914;48.178;11.716;2022-12-05T02:10:07;2.40;99.90
26164;DHT22;13914;48.178;11.716;2022-12-05T02:12:34;2.40;99.90
26164;DHT22;13914;48.178;11.716;2022-12-05T02:15:04;2.40;99.90
26164;DHT22;13914;48.178;11.716;2022-12-05T02:18:07;2.40;99.90
26164;DHT22;13914;48.178;11.716;2022-12-05T02:26:30;2.40;99.90
26164;DHT22;13914;48.178;11.716;2022-12-05T02:29:47;2.40;99.90
26164;DHT22;13914;48.178;11.716;2022-12-05T02:32:04;2.40;99.90
26164;DHT22;13914;48.178;11.716;2022-12-05T02:34:44;2.40;99.90
26164;DHT22;13914;48.178;11.716;2022-12-05T02:37:27;2.40;99.90
26164;DHT22;13914;48.178;11.716;2022-12-05T02:42:32;2.40;99.90
26164;DHT22;13914;48.178;11.716;2022-12-05T02:45:04;2.40;99.90
26164;DHT22;13914;48.178;11.716;2022-12-05T02:47:35;2.40;99.90
26164;DHT22;13914;48.178;11.716;2022-12-05T02:50:04;2.40;99.90
26164;DHT22;13914;48.178;11.716;2022-12-05T02:52:31;2.40;99.90
26164;DHT22;13914;48.178;11.716;2022-12-05T02:54:58;2.40;99.90
26164;DHT22;13914;48.178;11.716;2022-12-05T02:57:24;2.40;99.90
26164;DHT22;13914;48.178;11.716;2022-12-05T02:59:50;2.40;99.90
26164;DHT22;13914;48.178;11.716;2022-12-05T03:02:34;2.40;99.90
26164;DHT22;13914;48.178;11.716;2022-12-05T03:08:00;2.40;99.90
26164;DHT22;13914;48.178;11.716;2022-12-05T03:10:29;2.40;99.90
26164;DHT22;13914;48.178;11.716;2022-12-05T03:12:57;2.40;99.90
26164;DHT22;13914;48.178;11.716;2022-12-05T03:15:26;2.30;99.90
26164;DHT22;13914;48.178;11.716;2022-12-05T03:17:57;2.30;99.90
26164;DHT22;13914;48.178;11.716;2022-12-05T03:20:32;2.30;99.90
26164;DHT22;13914;48.178;11.716;2022-12-05T03:23:00;2.30;99.90
26164;DHT22;13914;48.178;11.716;2022-12-05T03:25:30;2.30;99.90
26164;DHT22;13914;48.178;11.716;2022-12-05T03:28:05;2.30;99.90
26164;DHT22;13914;48.178;11.716;2022-12-05T03:30:35;2.30;99.90
26164;DHT22;13914;48.178;11.716;2022-12-05T03:38:52;2.30;99.90
26164;DHT22;13914;48.178;11.716;2022-12-05T03:41:22;2.30;99.90
26164;DHT22;13914;48.178;11.716;2022-12-05T03:49:29;2.30;99.90
26164;DHT22;13914;48.178;11.716;2022-12-05T03:52:03;2.30;99.90
26164;DHT22;13914;48.178;11.716;2022-12-05T03:54:33;2.30;99.90
26164;DHT22;13914;48.178;11.716;2022-12-05T04:03:09;2.30;99.90
26164;DHT22;13914;48.178;11.716;2022-12-05T04:05:51;2.30;99.90
26164;DHT22;13914;48.178;11.716;2022-12-05T04:10:50;2.30;99.90
26164;DHT22;13914;48.178;11.716;2022-12-05T04:16:12;2.30;99.90
26164;DHT22;13914;48.178;11.716;2022-12-05T04:21:46;2.20;99.90
26164;DHT22;13914;48.178;11.716;2022-12-05T04:24:18;2.20;99.90
26164;DHT22;13914;48.178;11.716;2022-12-05T04:27:18;2.30;99.90
26164;DHT22;13914;48.178;11.716;2022-12-05T04:29:56;2.20;99.90
26164;DHT22;13914;48.178;11.716;2022-12-05T04:32:39;2.20;99.90
26164;DHT22;13914;48.178;11.716;2022-12-05T04:35:21;2.20;99.90
26164;DHT22;13914;48.178;11.716;2022-12-05T04:37:51;2.20;99.90
26164;DHT22;13914;48.178;11.716;2022-12-05T04:40:25;2.20;99.90
26164;DHT22;13914;48.178;11.716;2022-12-05T04:42:53;2.20;99.90
26164;DHT22;13914;48.178;11.716;2022-12-05T04:45:21;2.20;99.90
26164;DHT22;13914;48.178;11.716;2022-12-05T04:47:50;2.20;99.90
26164;DHT22;13914;48.178;11.716;2022-12-05T04:50:20;2.20;99.90
26164;DHT22;13914;48.178;11.716;2022-12-05T04:52:48;2.30;99.90
26164;DHT22;13914;48.178;11.716;2022-12-05T04:55:16;2.20;99.90
26164;DHT22;13914;48.178;11.716;2022-12-05T04:58:01;2.20;99.90
26164;DHT22;13914;48.178;11.716;2022-12-05T05:00:30;2.30;99.90
26164;DHT22;13914;48.178;11.716;2022-12-05T05:03:00;2.30;99.90
26164;DHT22;13914;48.178;11.716;2022-12-05T05:05:30;2.30;99.90
26164;DHT22;13914;48.178;11.716;2022-12-05T05:07:57;2.20;99.90
26164;DHT22;13914;48.178;11.716;2022-12-05T05:10:26;2.20;99.90
26164;DHT22;13914;48.178;11.716;2022-12-05T05:13:06;2.20;99.90
26164;DHT22;13914;48.178;11.716;2022-12-05T05:15:32;2.20;99.90
26164;DHT22;13914;48.178;11.716;2022-12-05T05:17:57;2.20;99.90
26164;DHT22;13914;48.178;11.716;2022-12-05T05:20:23;2.30;99.90
26164;DHT22;13914;48.178;11.716;2022-12-05T05:22:52;2.20;99.90
26164;DHT22;13914;48.178;11.716;2022-12-05T05:25:20;2.20;99.90
26164;DHT22;13914;48.178;11.716;2022-12-05T05:27:49;2.20;99.90
26164;DHT22;13914;48.178;11.716;2022-12-05T05:30:16;2.20;99.90
26164;DHT22;13914;48.178;11.716;2022-12-05T05:32:43;2.30;99.90
26164;DHT22;13914;48.178;11.716;2022-12-05T05:35:08;2.30;99.90
26164;DHT22;13914;48.178;11.716;2022-12-05T05:37:34;2.40;99.90
26164;DHT22;13914;48.178;11.716;2022-12-05T05:40:00;2.30;99.90
26164;DHT22;13914;48.178;11.716;2022-12-05T05:42:25;2.30;99.90
26164;DHT22;13914;48.178;11.716;2022-12-05T05:44:51;2.30;99.90
26164;DHT22;13914;48.178;11.716;2022-12-05T05:47:17;2.30;99.90
26164;DHT22;13914;48.178;11.716;2022-12-05T05:49:42;2.30;99.90
26164;DHT22;13914;48.178;11.716;2022-12-05T05:52:08;2.30;99.90
26164;DHT22;13914;48.178;11.716;2022-12-05T05:54:34;2.30;99.90
26164;DHT22;13914;48.178;11.716;2022-12-05T05:56:59;2.30;99.90
26164;DHT22;13914;48.178;11.716;2022-12-05T05:59:25;2.30;99.90
26164;DHT22;13914;48.178;11.716;2022-12-05T06:01:51;2.30;99.90
26164;DHT22;13914;48.178;11.716;2022-12-05T06:04:16;2.40;99.90
26164;DHT22;13914;48.178;11.716;2022-12-05T06:06:42;2.40;99.90
26164;DHT22;13914;48.178;11.716;2022-12-05T06:09:08;2.40;99.90
26164;DHT22;13914;48.178;11.716;2022-12-05T06:11:33;2.40;99.90
26164;DHT22;13914;48.178;11.716;2022-12-05T06:13:59;2.40;99.90
26164;DHT22;13914;48.178;11.716;2022-12-05T06:16:26;2.40;99.90
26164;DHT22;13914;48.178;11.716;2022-12-05T06:18:52;2.40;99.90
26164;DHT22;13914;48.178;11.716;2022-12-05T06:21:18;2.40;99.90
26164;DHT22;13914;48.178;11.716;2022-12-05T06:23:44;2.40;99.90
26164;DHT22;13914;48.178;11.716;2022-12-05T06:26:14;2.40;99.90
26164;DHT22;13914;48.178;11.716;2022-12-05T06:28:41;2.40;99.90
26164;DHT22;13914;48.178;11.716;2022-12-05T06:31:11;2.40;99.90
26164;DHT22;13914;48.178;11.716;2022-12-05T06:33:41;2.40;99.90
26164;DHT22;13914;48.178;11.716;2022-12-05T06:36:12;2.40;99.90
26164;DHT22;13914;48.178;11.716;2022-12-05T06:38:39;2.40;99.90
26164;DHT22;13914;48.178;11.716;2022-12-05T06:41:05;2.40;99.90
26164;DHT22;13914;48.178;11.716;2022-12-05T06:43:32;2.40;99.90
26164;DHT22;13914;48.178;11.716;2022-12-05T06:45:58;2.40;99.90
26164;DHT22;13914;48.178;11.716;2022-12-05T06:48:24;2.50;99.90
26164;DHT22;13914;48.178;11.716;2022-12-05T06:50:50;2.50;99.90
26164;DHT22;13914;48.178;11.716;2022-12-05T06:53:17;2.50;99.90
26164;DHT22;13914;48.178;11.716;2022-12-05T06:55:43;2.50;99.90
26164;DHT22;13914;48.178;11.716;2022-12-05T06:58:09;2.50;99.90
26164;DHT22;13914;48.178;11.716;2022-12-05T07:00:35;2.50;99.90
26164;DHT22;13914;48.178;11.716;2022-12-05T07:03:19;2.50;99.90
26164;DHT22;13914;48.178;11.716;2022-12-05T07:05:44;2.50;99.90
26164;DHT22;13914;48.178;11.716;2022-12-05T07:08:10;2.50;99.90
26164;DHT22;13914;48.178;11.716;2022-12-05T07:10:36;2.50;99.90
26164;DHT22;13914;48.178;11.716;2022-12-05T07:13:01;2.50;99.90
26164;DHT22;13914;48.178;11.716;2022-12-05T07:15:27;2.50;99.90
26164;DHT22;13914;48.178;11.716;2022-12-05T07:17:53;2.60;99.90
26164;DHT22;13914;48.178;11.716;2022-12-05T07:20:18;2.60;99.90
26164;DHT22;13914;48.178;11.716;2022-12-05T07:22:44;2.60;99.90
26164;DHT22;13914;48.178;11.716;2022-12-05T07:25:10;2.60;99.90
26164;DHT22;13914;48.178;11.716;2022-12-05T07:27:36;2.50;99.90
26164;DHT22;13914;48.178;11.716;2022-12-05T07:30:02;2.60;99.90
26164;DHT22;13914;48.178;11.716;2022-12-05T07:32:32;2.60;99.90
26164;DHT22;13914;48.178;11.716;2022-12-05T07:34:58;2.60;99.90
26164;DHT22;13914;48.178;11.716;2022-12-05T07:37:24;2.60;99.90
26164;DHT22;13914;48.178;11.716;2022-12-05T07:39:50;2.60;99.90
26164;DHT22;13914;48.178;11.716;2022-12-05T07:42:17;2.60;99.90
26164;DHT22;13914;48.178;11.716;2022-12-05T07:44:42;2.60;99.90
26164;DHT22;13914;48.178;11.716;2022-12-05T07:47:08;2.70;99.90
26164;DHT22;13914;48.178;11.716;2022-12-05T07:49:34;2.70;99.90
26164;DHT22;13914;48.178;11.716;2022-12-05T07:51:59;2.70;99.90
26164;DHT22;13914;48.178;11.716;2022-12-05T07:54:25;2.70;99.90
26164;DHT22;13914;48.178;11.716;2022-12-05T07:56:51;2.70;99.90
26164;DHT22;13914;48.178;11.716;2022-12-05T07:59:17;2.70;99.90
26164;DHT22;13914;48.178;11.716;2022-12-05T08:01:42;2.70;99.90
26164;DHT22;13914;48.178;11.716;2022-12-05T08:04:08;2.80;99.90
26164;DHT22;13914;48.178;11.716;2022-12-05T08:06:34;2.80;99.90
26164;DHT22;13914;48.178;11.716;2022-12-05T08:09:00;2.80;99.90
26164;DHT22;13914;48.178;11.716;2022-12-05T08:11:27;2.80;99.90
26164;DHT22;13914;48.178;11.716;2022-12-05T08:13:54;2.80;99.90
26164;DHT22;13914;48.178;11.716;2022-12-05T08:16:22;2.80;99.90
26164;DHT22;13914;48.178;11.716;2022-12-05T08:18:52;2.80;99.90
26164;DHT22;13914;48.178;11.716;2022-12-05T08:21:21;2.80;99.90
26164;DHT22;13914;48.178;11.716;2022-12-05T08:23:49;2.80;99.90
26164;DHT22;13914;48.178;11.716;2022-12-05T08:26:25;2.80;99.90
26164;DHT22;13914;48.178;11.716;2022-12-05T08:28:56;2.80;99.90
26164;DHT22;13914;48.178;11.716;2022-12-05T08:31:27;2.80;99.90
26164;DHT22;13914;48.178;11.716;2022-12-05T08:33:55;2.80;99.90
26164;DHT22;13914;48.178;11.716;2022-12-05T08:36:21;2.90;99.90
26164;DHT22;13914;48.178;11.716;2022-12-05T08:38:47;2.90;99.90
26164;DHT22;13914;48.178;11.716;2022-12-05T08:41:14;2.90;99.90
26164;DHT22;13914;48.178;11.716;2022-12-05T08:43:41;2.90;99.90
26164;DHT22;13914;48.178;11.716;2022-12-05T08:46:08;2.90;99.90
26164;DHT22;13914;48.178;11.716;2022-12-05T08:48:34;2.90;99.90
26164;DHT22;13914;48.178;11.716;2022-12-05T08:51:07;3.00;99.90
26164;DHT22;13914;48.178;11.716;2022-12-05T08:53:34;2.90;99.90
26164;DHT22;13914;48.178;11.716;2022-12-05T08:56:01;2.90;99.90
26164;DHT22;13914;48.178;11.716;2022-12-05T08:58:28;3.00;99.90
26164;DHT22;13914;48.178;11.716;2022-12-05T09:01:01;3.00;99.90
26164;DHT22;13914;48.178;11.716;2022-12-05T09:03:37;3.00;99.90
26164;DHT22;13914;48.178;11.716;2022-12-05T09:06:04;3.00;99.90
26164;DHT22;13914;48.178;11.716;2022-12-05T09:08:33;3.00;99.90
26164;DHT22;13914;48.178;11.716;2022-12-05T09:11:02;3.00;99.90
26164;DHT22;13914;48.178;11.716;2022-12-05T09:13:29;3.00;99.90
26164;DHT22;13914;48.178;11.716;2022-12-05T09:15:55;3.10;99.90
26164;DHT22;13914;48.178;11.716;2022-12-05T09:18:21;3.10;99.90
26164;DHT22;13914;48.178;11.716;2022-12-05T09:20:46;3.10;99.90
26164;DHT22;13914;48.178;11.716;2022-12-05T09:23:12;3.10;99.90
26164;DHT22;13914;48.178;11.716;2022-12-05T09:25:38;3.20;99.90
26164;DHT22;13914;48.178;11.716;2022-12-05T09:28:04;3.20;99.90
26164;DHT22;13914;48.178;11.716;2022-12-05T09:30:29;3.20;99.90
26164;DHT22;13914;48.178;11.716;2022-12-05T09:32:55;3.20;99.90
26164;DHT22;13914;48.178;11.716;2022-12-05T09:35:20;3.20;99.90
26164;DHT22;13914;48.178;11.716;2022-12-05T09:37:46;3.20;99.90
26164;DHT22;13914;48.178;11.716;2022-12-05T09:40:15;3.20;99.90
26164;DHT22;13914;48.178;11.716;2022-12-05T09:42:53;3.20;99.90
26164;DHT22;13914;48.178;11.716;2022-12-05T09:45:24;3.30;99.90
26164;DHT22;13914;48.178;11.716;2022-12-05T09:48:09;3.30;99.90
26164;DHT22;13914;48.178;11.716;2022-12-05T09:50:47;3.30;99.90
26164;DHT22;13914;48.178;11.716;2022-12-05T09:53:33;3.30;99.90
26164;DHT22;13914;48.178;11.716;2022-12-05T09:56:05;3.30;99.90
26164;DHT22;13914;48.178;11.716;2022-12-05T10:01:28;3.40;99.90
26164;DHT22;13914;48.178;11.716;2022-12-05T10:04:24;3.40;99.90
26164;DHT22;13914;48.178;11.716;2022-12-05T10:18:03;3.50;99.90
26164;DHT22;13914;48.178;11.716;2022-12-05T10:20:50;3.50;99.90
26164;DHT22;13914;48.178;11.716;2022-12-05T10:23:21;3.50;99.90
26164;DHT22;13914;48.178;11.716;2022-12-05T10:25:50;3.50;99.90
26164;DHT22;13914;48.178;11.716;2022-12-05T10:28:27;3.60;99.90
26164;DHT22;13914;48.178;11.716;2022-12-05T10:30:59;3.60;99.90
26164;DHT22;13914;48.178;11.716;2022-12-05T10:33:27;3.60;99.90
26164;DHT22;13914;48.178;11.716;2022-12-05T10:35:55;3.60;99.90
26164;DHT22;13914;48.178;11.716;2022-12-05T10:38:22;3.60;99.90
26164;DHT22;13914;48.178;11.716;2022-12-05T10:40:50;3.60;99.90
26164;DHT22;13914;48.178;11.716;2022-12-05T10:43:28;3.70;99.90
26164;DHT22;13914;48.178;11.716;2022-12-05T10:45:55;3.70;99.90
26164;DHT22;13914;48.178;11.716;2022-12-05T10:48:22;3.70;99.90
26164;DHT22;13914;48.178;11.716;2022-12-05T10:50:49;3.70;99.90
26164;DHT22;13914;48.178;11.716;2022-12-05T10:55:48;3.80;99.90
26164;DHT22;13914;48.178;11.716;2022-12-05T11:00:43;3.80;99.90
26164;DHT22;13914;48.178;11.716;2022-12-05T11:05:51;3.80;99.90
26164;DHT22;13914;48.178;11.716;2022-12-05T11:08:21;3.80;99.90
26164;DHT22;13914;48.178;11.716;2022-12-05T11:10:48;3.90;99.90
26164;DHT22;13914;48.178;11.716;2022-12-05T11:13:22;3.90;99.90
26164;DHT22;13914;48.178;11.716;2022-12-05T11:15:49;3.90;99.90
26164;DHT22;13914;48.178;11.716;2022-12-05T11:18:24;3.90;99.90
26164;DHT22;13914;48.178;11.716;2022-12-05T11:21:07;3.90;99.90
26164;DHT22;13914;48.178;11.716;2022-12-05T11:23:35;3.90;99.90
26164;DHT22;13914;48.178;11.716;2022-12-05T11:26:00;4.00;99.90
26164;DHT22;13914;48.178;11.716;2022-12-05T11:28:30;4.00;99.90
26164;DHT22;13914;48.178;11.716;2022-12-05T11:31:02;4.00;99.90
26164;DHT22;13914;48.178;11.716;2022-12-05T11:33:36;4.00;99.90
26164;DHT22;13914;48.178;11.716;2022-12-05T11:36:03;4.10;99.90
26164;DHT22;13914;48.178;11.716;2022-12-05T11:38:42;4.10;99.90
26164;DHT22;13914;48.178;11.716;2022-12-05T11:49:31;4.20;99.90
26164;DHT22;13914;48.178;11.716;2022-12-05T11:55:10;4.20;99.90
26164;DHT22;13914;48.178;11.716;2022-12-05T12:00:30;4.30;99.90
26164;DHT22;13914;48.178;11.716;2022-12-05T12:14:37;4.40;99.90
26164;DHT22;13914;48.178;11.716;2022-12-05T12:17:25;4.40;99.90
26164;DHT22;13914;48.178;11.716;2022-12-05T12:22:48;4.50;99.90
26164;DHT22;13914;48.178;11.716;2022-12-05T12:25:23;4.50;99.90
26164;DHT22;13914;48.178;11.716;2022-12-05T12:39:23;4.60;99.90
26164;DHT22;13914;48.178;11.716;2022-12-05T12:42:10;4.60;99.90
26164;DHT22;13914;48.178;11.716;2022-12-05T12:44:53;4.60;99.90
26164;DHT22;13914;48.178;11.716;2022-12-05T12:55:41;4.60;99.90
26164;DHT22;13914;48.178;11.716;2022-12-05T13:01:18;4.70;99.90
26164;DHT22;13914;48.178;11.716;2022-12-05T13:04:00;4.70;99.90
26164;DHT22;13914;48.178;11.716;2022-12-05T13:09:29;4.70;99.90
26164;DHT22;13914;48.178;11.716;2022-12-05T13:11:59;4.80;99.90
26164;DHT22;13914;48.178;11.716;2022-12-05T13:14:28;4.80;99.90
26164;DHT22;13914;48.178;11.716;2022-12-05T13:16:55;4.80;99.90
26164;DHT22;13914;48.178;11.716;2022-12-05T13:19:28;4.80;99.90
26164;DHT22;13914;48.178;11.716;2022-12-05T13:22:03;4.80;99.90
26164;DHT22;13914;48.178;11.716;2022-12-05T13:24:30;4.80;99.90
26164;DHT22;13914;48.178;11.716;2022-12-05T13:26:57;4.80;99.90
26164;DHT22;13914;48.178;11.716;2022-12-05T13:29:28;4.80;99.90
26164;DHT22;13914;48.178;11.716;2022-12-05T13:31:59;4.80;99.90
26164;DHT22;13914;48.178;11.716;2022-12-05T13:34:41;4.80;99.90
26164;DHT22;13914;48.178;11.716;2022-12-05T13:37:11;4.80;99.90
26164;DHT22;13914;48.178;11.716;2022-12-05T13:40:01;4.80;99.90
26164;DHT22;13914;48.178;11.716;2022-12-05T13:42:46;4.90;99.90
26164;DHT22;13914;48.178;11.716;2022-12-05T13:45:17;4.90;99.90
26164;DHT22;13914;48.178;11.716;2022-12-05T13:47:53;4.80;99.90
26164;DHT22;13914;48.178;11.716;2022-12-05T13:52:59;4.90;99.90
26164;DHT22;13914;48.178;11.716;2022-12-05T13:55:30;4.80;99.90
26164;DHT22;13914;48.178;11.716;2022-12-05T13:58:00;4.90;99.90
26164;DHT22;13914;48.178;11.716;2022-12-05T14:00:28;4.90;99.90
26164;DHT22;13914;48.178;11.716;2022-12-05T14:02:55;4.90;99.90
26164;DHT22;13914;48.178;11.716;2022-12-05T14:05:35;4.90;99.90
26164;DHT22;13914;48.178;11.716;2022-12-05T14:08:46;4.90;99.90
26164;DHT22;13914;48.178;11.716;2022-12-05T14:15:51;4.80;99.90
26164;DHT22;13914;48.178;11.716;2022-12-05T14:18:40;4.90;99.90
26164;DHT22;13914;48.178;11.716;2022-12-05T14:21:24;4.90;99.90
26164;DHT22;13914;48.178;11.716;2022-12-05T14:24:20;4.80;99.90
26164;DHT22;13914;48.178;11.716;2022-12-05T14:29:35;4.90;99.90
26164;DHT22;13914;48.178;11.716;2022-12-05T14:32:31;4.80;99.90
26164;DHT22;13914;48.178;11.716;2022-12-05T14:37:29;4.80;99.90
26164;DHT22;13914;48.178;11.716;2022-12-05T14:39:57;4.80;99.90
26164;DHT22;13914;48.178;11.716;2022-12-05T14:42:35;4.80;99.90
26164;DHT22;13914;48.178;11.716;2022-12-05T14:45:16;4.80;99.90
26164;DHT22;13914;48.178;11.716;2022-12-05T14:48:03;4.80;99.90
26164;DHT22;13914;48.178;11.716;2022-12-05T14:50:41;4.80;99.90
26164;DHT22;13914;48.178;11.716;2022-12-05T14:55:43;4.80;99.90
26164;DHT22;13914;48.178;11.716;2022-12-05T14:58:19;4.80;99.90
26164;DHT22;13914;48.178;11.716;2022-12-05T15:04:04;4.80;99.90
26164;DHT22;13914;48.178;11.716;2022-12-05T15:06:31;4.80;99.90
26164;DHT22;13914;48.178;11.716;2022-12-05T15:08:59;4.80;99.90
26164;DHT22;13914;48.178;11.716;2022-12-05T15:11:28;4.80;99.90
26164;DHT22;13914;48.178;11.716;2022-12-05T15:13:56;4.70;99.90
26164;DHT22;13914;48.178;11.716;2022-12-05T15:16:25;4.70;99.90
26164;DHT22;13914;48.178;11.716;2022-12-05T15:19:01;4.80;99.90
26164;DHT22;13914;48.178;11.716;2022-12-05T15:21:35;4.70;99.90
26164;DHT22;13914;48.178;11.716;2022-12-05T15:24:05;4.70;99.90
26164;DHT22;13914;48.178;11.716;2022-12-05T15:26:38;4.70;99.90
26164;DHT22;13914;48.178;11.716;2022-12-05T15:29:06;4.70;99.90
26164;DHT22;13914;48.178;11.716;2022-12-05T15:31:59;4.70;99.90
26164;DHT22;13914;48.178;11.716;2022-12-05T15:34:38;4.70;99.90
26164;DHT22;13914;48.178;11.716;2022-12-05T15:40:08;4.70;99.90
26164;DHT22;13914;48.178;11.716;2022-12-05T15:47:42;4.60;99.90
26164;DHT22;13914;48.178;11.716;2022-12-05T15:50:29;4.60;99.90
26164;DHT22;13914;48.178;11.716;2022-12-05T15:55:37;4.70;99.90
26164;DHT22;13914;48.178;11.716;2022-12-05T15:58:10;4.60;99.90
26164;DHT22;13914;48.178;11.716;2022-12-05T16:00:49;4.60;99.90
26164;DHT22;13914;48.178;11.716;2022-12-05T16:03:20;4.60;99.90
26164;DHT22;13914;48.178;11.716;2022-12-05T16:05:53;4.60;99.90
26164;DHT22;13914;48.178;11.716;2022-12-05T16:08:20;4.60;99.90
26164;DHT22;13914;48.178;11.716;2022-12-05T16:10:48;4.50;99.90
26164;DHT22;13914;48.178;11.716;2022-12-05T16:13:15;4.60;99.90
26164;DHT22;13914;48.178;11.716;2022-12-05T16:15:43;4.60;99.90
26164;DHT22;13914;48.178;11.716;2022-12-05T16:18:26;4.50;99.90
26164;DHT22;13914;48.178;11.716;2022-12-05T16:20:53;4.50;99.90
26164;DHT22;13914;48.178;11.716;2022-12-05T16:23:24;4.50;99.90
26164;DHT22;13914;48.178;11.716;2022-12-05T16:25:51;4.50;99.90
26164;DHT22;13914;48.178;11.716;2022-12-05T16:28:18;4.50;99.90
26164;DHT22;13914;48.178;11.716;2022-12-05T16:31:02;4.50;99.90
26164;DHT22;13914;48.178;11.716;2022-12-05T16:33:29;4.50;99.90
26164;DHT22;13914;48.178;11.716;2022-12-05T16:35:55;4.50;99.90
26164;DHT22;13914;48.178;11.716;2022-12-05T16:38:31;4.50;99.90
26164;DHT22;13914;48.178;11.716;2022-12-05T16:40:58;4.50;99.90
26164;DHT22;13914;48.178;11.716;2022-12-05T16:45:58;4.40;99.90
26164;DHT22;13914;48.178;11.716;2022-12-05T16:48:32;4.40;99.90
26164;DHT22;13914;48.178;11.716;2022-12-05T16:53:53;4.40;99.90
26164;DHT22;13914;48.178;11.716;2022-12-05T16:56:28;4.40;99.90
26164;DHT22;13914;48.178;11.716;2022-12-05T16:58:55;4.40;99.90
26164;DHT22;13914;48.178;11.716;2022-12-05T17:01:23;4.40;99.90
26164;DHT22;13914;48.178;11.716;2022-12-05T17:03:50;4.40;99.90
26164;DHT22;13914;48.178;11.716;2022-12-05T17:06:18;4.40;99.90
26164;DHT22;13914;48.178;11.716;2022-12-05T17:08:45;4.40;99.90
26164;DHT22;13914;48.178;11.716;2022-12-05T17:13:45;4.40;99.90
26164;DHT22;13914;48.178;11.716;2022-12-05T17:16:15;4.40;99.90
26164;DHT22;13914;48.178;11.716;2022-12-05T17:18:42;4.30;99.90
26164;DHT22;13914;48.178;11.716;2022-12-05T17:21:10;4.30;99.90
26164;DHT22;13914;48.178;11.716;2022-12-05T17:23:39;4.30;99.90
26164;DHT22;13914;48.178;11.716;2022-12-05T17:26:07;4.30;99.90
26164;DHT22;13914;48.178;11.716;2022-12-05T17:28:33;4.30;99.90
26164;DHT22;13914;48.178;11.716;2022-12-05T17:30:59;4.30;99.90
26164;DHT22;13914;48.178;11.716;2022-12-05T17:33:24;4.30;99.90
26164;DHT22;13914;48.178;11.716;2022-12-05T17:35:50;4.30;99.90
26164;DHT22;13914;48.178;11.716;2022-12-05T17:38:16;4.30;99.90
26164;DHT22;13914;48.178;11.716;2022-12-05T17:40:42;4.30;99.90
26164;DHT22;13914;48.178;11.716;2022-12-05T17:43:13;4.30;99.90
26164;DHT22;13914;48.178;11.716;2022-12-05T17:45:40;4.30;99.90
26164;DHT22;13914;48.178;11.716;2022-12-05T17:48:13;4.30;99.90
26164;DHT22;13914;48.178;11.716;2022-12-05T17:50:39;4.20;99.90
26164;DHT22;13914;48.178;11.716;2022-12-05T17:53:07;4.20;99.90
26164;DHT22;13914;48.178;11.716;2022-12-05T17:55:36;4.20;99.90
26164;DHT22;13914;48.178;11.716;2022-12-05T17:58:02;4.20;99.90
26164;DHT22;13914;48.178;11.716;2022-12-05T18:00:28;4.20;99.90
26164;DHT22;13914;48.178;11.716;2022-12-05T18:02:53;4.20;99.90
26164;DHT22;13914;48.178;11.716;2022-12-05T18:05:19;4.20;99.90
26164;DHT22;13914;48.178;11.716;2022-12-05T18:07:45;4.20;99.90
26164;DHT22;13914;48.178;11.716;2022-12-05T18:10:12;4.20;99.90
26164;DHT22;13914;48.178;11.716;2022-12-05T18:12:40;4.20;99.90
26164;DHT22;13914;48.178;11.716;2022-12-05T18:15:06;4.20;99.90
26164;DHT22;13914;48.178;11.716;2022-12-05T18:17:32;4.20;99.90
26164;DHT22;13914;48.178;11.716;2022-12-05T18:19:58;4.20;99.90